Date,TemperatureHighF,TemperatureAvgF,TemperatureLowF,DewpointHighF,DewpointAvgF,DewpointLowF,HumidityHigh,HumidityAvg,HumidityLow,PressureMaxIn,PressureMinIn,WindSpeedMaxMPH,WindSpeedAvgMPH,GustSpeedMaxMPH,PrecipitationSumIn
2013-1-1,61.9,38.7,30.8,41.8,32.0,28.2,91,78,43,30.34,30.19,6,1,6,0.00
2013-1-2,34.2,32.7,31.3,30.3,29.3,28.5,89,87,85,30.20,30.13,2,0,2,0.00
2013-1-4,50.6,45.0,43.2,41.2,39.3,38.5,85,80,70,29.83,29.78,4,0,4,0.00
2013-1-5,45.4,43.8,42.5,39.0,36.7,34.0,85,76,68,29.82,29.73,8,1,8,0.01
2013-1-6,46.1,45.1,41.8,42.3,41.1,35.2,89,86,73,29.81,29.60,8,2,8,0.10
2013-1-7,51.1,47.4,41.8,47.8,44.2,38.8,93,89,81,29.76,29.43,13,5,13,0.02
2013-1-8,53.5,47.2,43.4,49.4,44.5,40.6,96,90,82,29.77,29.36,14,3,14,0.43
2013-1-9,50.0,48.9,46.4,48.2,47.1,44.6,94,94,93,29.36,29.35,0,0,0,0.21
2013-1-10,38.2,35.4,33.3,35.5,33.0,31.3,93,91,89,29.73,29.70,3,0,3,0.00
2013-1-11,54.4,35.5,29.7,46.3,30.6,27.5,96,83,56,29.95,29.72,6,1,7,0.02
2013-1-12,58.7,34.9,29.0,41.9,28.2,24.8,90,78,47,30.06,29.93,8,0,8,0.00
2013-1-13,58.5,35.0,28.1,39.1,27.1,24.1,87,74,38,30.12,30.04,4,0,4,0.00
2013-1-14,39.4,34.5,32.6,32.4,28.8,27.1,83,79,71,30.18,30.08,3,0,3,0.00
2013-1-15,66.8,46.4,35.3,46.8,35.0,29.7,87,68,38,30.32,30.18,4,0,4,0.00
2013-1-16,46.1,38.1,32.8,39.2,33.0,28.7,89,82,74,30.29,30.13,4,0,4,0.01
2013-1-17,39.1,35.6,32.9,35.8,32.6,29.4,92,89,86,30.14,29.91,3,0,3,0.00
2013-1-18,40.0,37.1,34.0,37.8,34.7,32.1,93,91,90,29.96,29.88,5,1,5,0.02
2013-1-19,37.8,36.0,34.6,35.4,33.6,32.4,92,91,89,30.00,29.95,4,1,4,0.00
2013-1-20,40.7,36.2,33.8,38.0,34.1,31.9,94,92,89,30.01,29.88,4,1,4,0.00
2013-1-21,38.3,35.9,33.3,36.0,33.9,31.1,94,93,90,29.89,29.76,4,1,4,0.01
2013-1-22,41.8,36.8,32.8,37.6,34.1,30.7,94,90,83,29.76,29.52,2,0,2,0.00
2013-1-23,43.9,41.7,38.3,40.7,38.1,35.1,93,87,80,29.76,29.46,7,1,7,0.23
2013-1-24,55.8,44.1,38.2,47.0,39.2,35.5,91,83,65,29.83,29.67,6,1,6,0.18
2013-1-25,65.2,47.1,41.4,55.4,43.0,37.6,94,86,65,29.68,29.55,4,1,4,0.12
2013-1-26,50.8,43.7,41.0,43.1,39.4,38.1,92,85,70,29.65,29.49,7,2,9,0.17
2013-1-27,43.2,42.0,40.7,39.9,38.5,37.5,91,87,85,29.68,29.61,8,2,8,0.05
2013-1-28,43.7,41.8,39.8,41.1,39.5,37.8,93,92,87,29.71,29.62,7,1,7,0.28
2013-1-29,47.9,44.5,42.1,46.4,43.0,40.4,95,94,91,29.95,29.70,7,2,7,0.21
2013-1-30,49.0,47.9,44.8,47.9,46.8,43.2,96,96,94,30.00,29.94,4,1,4,0.12
2013-1-31,51.8,48.8,46.6,47.7,46.0,44.9,96,90,83,30.01,29.91,9,2,9,0.11
2013-2-1,64.4,49.1,43.4,54.4,44.8,40.4,96,86,61,30.04,29.94,7,1,7,0.00
2013-2-2,45.2,42.7,40.0,42.5,40.2,37.5,93,91,88,30.00,29.87,6,2,6,0.00
2013-2-3,50.2,44.2,39.2,45.8,41.6,37.3,93,91,83,29.92,29.82,4,1,5,0.08
2013-2-4,56.0,48.2,44.5,47.6,43.4,42.0,92,84,67,29.83,29.50,5,1,5,0.00
2013-2-5,62.3,48.0,45.0,49.7,42.9,40.5,92,83,57,29.56,29.45,13,3,13,0.18
2013-2-6,55.6,47.1,43.9,43.5,41.4,39.9,89,81,60,29.67,29.41,9,3,9,0.07
2013-2-7,67.9,47.7,40.0,45.8,37.9,34.5,88,70,39,29.80,29.41,11,2,11,0.07
2013-2-8,59.8,44.4,39.1,46.5,37.7,34.6,86,78,58,29.93,29.80,5,0,5,0.00
2013-2-9,49.7,44.6,41.4,43.0,39.5,37.0,88,83,73,29.95,29.88,4,1,4,0.00
2013-2-10,63.5,45.7,39.4,48.6,39.4,36.2,90,79,52,30.00,29.93,5,1,5,0.00
2013-2-11,50.0,45.4,41.4,43.6,40.0,37.8,88,82,70,29.98,29.94,5,1,5,0.01
2013-2-12,51.7,47.8,45.2,46.7,44.5,41.5,94,88,80,30.02,29.90,11,2,11,0.02
2013-2-13,50.4,47.2,45.5,45.2,42.6,40.4,90,84,75,30.12,29.91,8,1,10,0.01
2013-2-14,59.4,48.4,44.3,50.6,43.9,41.1,91,85,65,30.17,30.11,6,1,6,0.04
2013-2-15,69.8,48.5,42.7,53.1,43.0,38.4,93,82,52,30.16,29.79,5,1,5,0.01
2013-2-16,67.0,47.9,41.0,50.6,41.3,37.4,91,79,50,29.82,29.73,11,2,11,0.01
2013-2-17,58.0,45.2,41.8,46.7,37.1,35.6,79,74,57,29.86,29.77,6,2,6,0.01
2013-2-18,50.6,44.8,40.7,42.4,38.0,36.2,86,77,64,29.72,29.39,6,1,6,0.01
2013-2-19,73.4,48.7,39.4,47.1,36.8,33.2,86,66,34,29.63,29.35,8,2,8,0.00
2013-2-20,48.4,42.7,38.3,39.6,35.9,32.4,82,77,70,29.66,29.60,8,2,8,0.04
2013-2-21,44.8,43.9,42.5,40.1,39.1,37.4,85,83,79,29.68,29.63,8,4,8,0.00
2013-2-22,46.3,43.7,40.0,44.0,40.1,35.1,93,87,82,29.67,29.31,15,4,15,0.30
2013-2-23,52.9,45.0,40.5,41.4,38.2,35.3,86,77,63,29.99,29.51,4,1,4,0.02
2013-2-24,51.1,47.1,41.8,38.9,37.1,35.6,81,68,62,29.99,29.59,10,4,10,0.02
2013-2-25,55.4,46.5,40.3,41.0,36.1,31.3,88,68,46,29.91,29.50,13,4,13,0.13
2013-2-26,57.8,46.4,40.1,44.9,35.4,33.1,82,66,52,29.97,29.81,10,3,10,0.01
2013-2-27,60.7,47.7,40.9,50.5,41.4,36.5,89,79,60,29.93,29.82,5,1,5,0.32
2013-2-28,52.6,48.7,44.5,50.5,46.4,41.8,94,92,89,29.94,29.81,9,2,9,0.26
2013-3-1,62.6,55.1,52.0,53.5,50.7,49.1,94,86,69,29.98,29.90,11,4,11,0.11
2013-3-2,61.6,50.9,42.3,50.9,45.3,37.9,86,81,64,29.90,29.68,11,2,11,0.28
2013-3-3,74.2,53.6,37.4,47.5,40.4,34.5,89,66,38,29.90,29.82,6,1,6,0.01
2013-3-4,68.9,51.0,35.6,43.2,32.7,29.0,81,51,37,29.89,29.54,8,1,8,0.00
2013-3-5,52.2,45.6,42.5,39.5,35.1,29.0,81,67,57,29.54,29.34,6,1,6,0.00
2013-3-6,47.5,44.1,41.6,43.2,39.7,37.8,91,85,81,29.51,29.19,9,2,9,0.54
2013-3-7,65.7,48.3,42.1,51.8,42.0,38.8,93,80,56,29.70,29.51,7,1,7,0.23
2013-3-8,71.3,50.7,39.2,49.8,40.4,35.6,89,71,44,29.86,29.69,5,2,5,0.00
2013-3-9,58.7,44.5,37.4,38.5,35.8,33.1,86,73,47,30.10,29.86,5,0,5,0.00
2013-3-10,50.9,46.6,41.6,42.3,39.5,34.2,83,76,72,30.11,30.04,4,1,4,0.02
2013-3-11,56.0,49.5,44.3,45.7,43.7,40.3,88,81,68,30.05,29.78,5,1,5,0.04
2013-3-12,56.7,52.2,49.0,51.4,48.1,45.5,91,86,72,29.78,29.70,11,4,11,0.01
2013-3-13,51.7,51.5,51.1,48.7,48.5,48.5,91,90,89,29.76,29.73,5,3,5,0.00
2013-3-14,55.1,50.5,48.6,49.1,47.1,45.5,93,88,74,29.77,29.68,5,2,5,0.06
2013-3-15,63.4,54.3,48.8,54.0,49.3,45.8,94,84,67,29.83,29.76,7,3,7,0.01
2013-3-16,53.3,47.2,41.9,47.2,41.2,35.7,87,80,68,29.76,29.50,12,3,12,0.04
2013-3-17,63.9,43.3,39.8,40.7,35.9,33.5,83,76,40,29.81,29.59,6,2,6,0.00
2013-3-18,63.0,46.8,41.4,42.3,35.4,33.1,83,65,44,29.85,29.73,6,3,6,0.01
2013-3-19,66.8,45.5,39.2,43.4,36.4,31.8,85,72,31,29.84,29.21,6,2,7,0.32
2013-3-20,64.6,47.5,42.1,49.1,42.0,33.5,95,82,53,29.62,29.00,15,4,15,0.66
2013-3-21,57.6,41.9,37.4,41.0,35.0,33.2,87,77,47,29.83,29.63,8,3,8,0.08
2013-3-22,55.6,39.2,36.0,44.0,33.6,30.3,87,81,55,29.98,29.83,5,2,5,0.01
2013-3-23,70.9,50.9,36.4,43.7,32.8,28.2,77,52,34,30.01,29.92,6,1,6,0.00
2013-3-24,59.4,50.3,35.8,42.8,36.0,28.6,79,59,45,29.92,29.74,6,1,6,0.00
2013-3-25,77.8,61.8,38.5,44.9,35.8,31.2,77,42,23,29.75,29.48,6,1,6,0.00
2013-3-26,67.9,58.1,49.0,43.8,39.9,34.2,67,52,37,29.62,29.51,6,1,6,0.00
2013-3-27,64.3,53.5,48.8,47.5,42.5,35.8,81,66,51,29.56,29.48,4,1,4,0.03
2013-3-28,58.3,50.6,47.0,45.4,43.8,42.1,86,78,58,29.71,29.53,3,0,3,0.03
2013-3-29,84.8,59.6,47.9,56.3,46.0,41.9,84,64,34,29.86,29.68,6,1,6,0.01
2013-3-30,83.2,60.9,47.0,51.0,45.3,41.5,82,60,31,29.83,29.62,7,2,7,0.02
2013-3-31,87.5,65.9,48.2,50.2,45.6,41.6,78,51,26,29.64,29.46,5,1,5,0.17
2013-4-1,66.1,58.6,50.9,50.5,46.8,41.4,82,66,54,29.77,29.55,6,2,6,0.00
2013-4-2,59.8,56.1,50.9,48.4,46.6,44.6,79,71,65,29.82,29.76,7,2,7,0.00
2013-4-3,79.9,61.1,48.8,53.8,46.3,42.8,82,60,38,29.81,29.57,3,1,3,0.00
2013-4-4,57.8,55.3,53.3,53.1,48.7,45.2,90,79,68,29.57,29.27,6,1,6,0.35
2013-4-5,61.0,54.3,50.0,52.6,49.5,46.9,93,84,67,29.50,29.35,8,3,8,0.46
2013-4-6,56.7,50.1,46.1,47.3,45.2,42.8,91,83,69,29.56,29.33,8,3,8,0.30
2013-4-7,48.6,45.6,43.0,44.7,42.3,39.9,91,88,85,29.51,29.12,6,2,6,0.88
2013-4-8,61.2,48.5,43.0,48.4,43.1,40.1,92,83,58,29.88,29.51,4,2,4,0.07
2013-4-9,58.0,51.8,44.8,46.3,43.0,40.7,87,72,59,29.97,29.80,6,2,6,0.00
2013-4-10,53.1,52.6,52.2,44.2,43.7,42.9,74,72,71,29.81,29.73,6,2,6,0.00
2013-4-11,56.9,51.8,47.5,47.4,42.8,38.6,84,72,61,29.92,29.82,3,1,3,0.13
2013-4-12,50.2,45.9,43.2,43.1,39.9,37.4,93,80,65,29.81,29.30,8,2,8,0.16
2013-4-13,52.9,45.1,40.0,42.2,38.7,34.5,87,78,67,29.60,29.37,8,3,8,0.29
2013-4-14,69.5,51.3,40.9,48.9,39.5,35.9,90,66,44,29.63,29.55,6,2,6,0.03
2013-4-15,60.3,50.6,42.8,44.2,40.5,37.4,82,69,47,29.79,29.57,4,1,4,0.06
2013-4-16,74.0,52.0,41.0,51.0,40.1,36.1,84,66,37,30.01,29.80,5,1,5,0.07
2013-4-17,77.2,56.4,41.8,46.5,39.2,34.8,77,56,29,30.08,30.01,6,2,6,0.01
2013-4-18,54.2,49.5,46.4,48.0,43.1,38.3,91,79,66,30.08,29.83,9,2,9,0.20
2013-4-19,57.1,51.6,49.7,53.6,49.0,47.2,93,91,86,29.83,29.68,9,3,9,0.68
2013-4-20,57.4,51.7,48.1,47.7,45.8,43.9,92,80,69,29.90,29.82,5,2,5,0.01
2013-4-21,57.6,50.2,46.3,48.3,43.1,39.5,82,77,64,29.97,29.85,5,2,5,0.08
2013-4-22,76.9,55.5,41.2,49.1,38.1,29.2,87,56,29,30.15,29.99,5,2,5,0.00
2013-4-23,70.4,56.1,41.8,44.2,37.0,31.1,75,51,29,30.04,29.87,5,2,5,0.00
2013-4-24,85.3,67.7,45.0,49.4,40.0,35.8,77,40,26,29.94,29.70,8,2,8,0.00
2013-4-25,87.5,66.4,48.2,47.2,41.2,37.7,69,44,23,29.76,29.66,4,1,4,0.00
2013-4-26,78.3,63.9,52.2,52.7,46.5,43.0,73,55,35,29.89,29.77,3,1,3,0.01
2013-4-27,60.8,56.3,53.3,47.7,43.9,37.6,80,64,49,29.84,29.78,7,2,7,0.02
2013-4-28,65.0,55.5,50.2,52.6,45.9,40.2,81,71,48,29.84,29.60,8,2,8,0.09
2013-4-29,72.2,53.0,46.3,47.8,42.1,37.7,86,69,39,29.78,29.54,5,2,5,0.20
2013-4-30,73.4,53.6,42.3,46.0,37.5,34.4,77,57,34,30.05,29.79,4,1,4,0.01
2013-5-1,80.3,59.9,42.8,44.1,37.1,33.6,71,46,24,30.20,30.06,5,1,5,0.00
2013-5-2,86.9,65.2,49.3,48.0,42.0,37.7,69,46,25,30.17,30.00,6,2,6,0.00
2013-5-3,84.8,67.6,51.3,51.0,46.3,39.8,71,48,31,30.01,29.86,6,2,6,0.00
2013-5-4,92.0,75.5,53.3,55.4,45.8,37.6,73,38,22,29.86,29.64,14,4,14,0.00
2013-5-5,96.1,74.7,55.8,52.4,46.6,39.2,69,40,19,29.62,29.42,8,2,8,0.00
2013-5-6,102.1,68.9,58.1,57.5,48.8,44.3,68,52,17,29.49,29.40,4,0,4,0.06
2013-5-7,72.0,61.6,53.5,53.8,50.7,48.7,84,68,53,29.65,29.49,5,2,5,0.00
2013-5-8,78.1,58.6,52.9,54.4,49.9,47.9,83,74,44,29.78,29.65,5,1,5,0.01
2013-5-9,80.8,62.8,51.7,56.0,50.7,46.6,87,66,39,29.85,29.76,3,0,3,0.00
2013-5-10,86.8,68.7,54.0,58.0,52.5,49.6,85,60,33,29.83,29.75,4,1,4,0.00
2013-5-11,87.5,69.8,56.9,55.7,49.9,42.8,69,51,31,29.81,29.63,4,2,4,0.02
2013-5-12,73.8,63.8,59.8,56.9,55.7,53.1,89,76,54,29.72,29.66,3,2,3,0.02
2013-5-13,67.5,57.1,50.8,58.2,51.2,42.0,89,81,63,29.82,29.57,7,2,7,0.16
2013-5-14,76.0,56.3,47.3,45.8,42.4,38.2,82,63,30,29.86,29.74,6,1,6,0.02
2013-5-15,70.6,58.0,50.4,49.9,44.3,40.7,70,61,42,29.75,29.67,4,1,4,0.01
2013-5-16,81.0,65.7,58.1,54.9,50.2,47.6,82,59,35,29.61,29.50,6,2,6,0.04
2013-5-17,67.0,57.4,54.0,51.5,49.3,46.5,88,76,51,29.64,29.58,6,3,6,0.03
2013-5-18,67.3,61.7,58.5,48.2,47.1,45.6,65,59,50,29.88,29.77,4,1,4,0.00
2013-5-19,69.3,59.5,54.4,51.0,48.8,45.5,79,69,52,30.04,29.91,4,1,4,0.00
2013-5-20,76.1,59.7,50.2,52.4,48.2,44.6,84,68,39,29.98,29.54,3,1,3,0.03
2013-5-21,62.6,55.1,47.5,50.0,46.1,43.1,90,72,57,29.53,29.41,6,2,6,0.14
2013-5-22,60.1,49.5,45.0,50.4,44.9,42.6,92,84,70,29.56,29.48,5,2,5,0.24
2013-5-23,60.8,51.6,46.3,48.6,45.3,42.3,90,80,59,29.64,29.55,6,1,6,0.11
2013-5-24,70.2,57.0,48.6,50.1,47.3,44.6,88,72,45,29.68,29.60,5,1,5,0.02
2013-5-25,69.1,54.9,51.1,48.8,47.3,44.8,86,77,42,29.68,29.60,6,2,6,0.00
2013-5-26,69.8,57.2,52.2,55.0,50.3,47.1,87,78,58,29.62,29.57,6,1,6,0.06
2013-5-27,61.9,57.5,52.2,56.1,53.2,48.7,90,86,79,29.60,29.35,5,1,5,0.21
2013-5-28,66.8,57.6,52.4,52.6,50.6,47.3,92,78,58,29.52,29.40,8,2,8,0.03
2013-5-29,66.8,56.2,50.4,52.7,49.3,46.6,89,78,54,29.60,29.32,9,2,9,0.15
2013-5-30,67.7,59.0,49.7,49.8,47.5,45.1,85,67,46,29.87,29.60,10,3,10,0.00
2013-5-31,74.2,58.1,52.4,49.9,46.5,42.1,84,67,34,29.97,29.87,5,1,5,0.00
2013-6-1,81.9,63.4,54.7,52.7,48.0,45.3,75,60,31,29.88,29.71,7,1,7,0.00
2013-6-2,80.6,67.9,56.5,53.2,50.7,48.2,81,55,34,29.73,29.68,6,2,6,0.01
2013-6-3,83.9,67.6,53.1,56.0,52.3,48.6,85,60,36,29.76,29.69,6,2,6,0.00
2013-6-4,81.4,64.4,54.7,57.9,52.8,49.3,82,68,43,29.76,29.72,5,2,5,0.02
2013-6-5,82.4,76.6,59.0,58.0,55.2,48.2,68,49,41,29.73,29.69,6,2,6,0.00
2013-6-6,84.1,72.8,63.0,56.7,50.3,45.0,54,46,32,29.69,29.65,5,1,5,0.01
2013-6-7,71.1,63.6,57.6,55.7,49.9,43.2,71,61,43,29.78,29.65,7,2,7,0.00
2013-6-8,76.9,62.3,55.4,53.6,49.4,46.7,73,63,42,29.82,29.73,6,2,6,0.00
2013-6-9,66.6,57.1,54.4,51.4,47.8,45.0,78,71,53,29.76,29.65,7,2,7,0.00
2013-6-10,80.3,65.2,52.7,51.2,47.3,44.7,75,54,33,29.67,29.52,6,2,6,0.00
2013-6-11,74.5,62.2,51.8,48.7,46.0,44.0,77,57,38,29.74,29.58,9,3,9,0.02
2013-6-12,55.3,54.6,54.2,47.3,46.7,45.9,76,74,71,29.75,29.73,6,3,6,0.00
2013-6-24,77.4,64.9,58.0,58.1,55.2,53.2,92,72,46,29.34,29.24,8,3,8,0.06
2013-6-25,78.8,62.5,58.0,58.5,55.6,53.6,91,79,45,29.50,29.31,11,1,11,0.52
2013-6-26,79.6,65.6,58.9,61.9,57.8,55.3,92,77,51,29.72,29.48,10,1,10,0.05
2013-6-27,71.3,64.7,61.9,62.9,59.0,55.6,89,82,72,29.83,29.68,2,0,2,0.12
2013-6-28,97.4,81.7,61.9,66.5,63.2,59.0,90,56,36,29.83,29.68,9,2,9,0.00
2013-6-29,92.7,72.1,67.1,63.5,60.3,58.7,78,68,38,29.75,29.63,4,1,4,0.00
2013-6-30,101.2,76.5,63.9,67.0,60.7,56.0,79,61,29,29.65,29.49,4,1,4,0.00
2013-7-1,97.6,80.4,68.4,66.6,62.2,58.3,73,56,36,29.67,29.55,7,2,7,0.00
2013-7-2,88.6,77.2,62.8,63.5,57.1,51.4,79,52,32,29.75,29.67,8,2,8,0.02
2013-7-3,87.1,68.8,61.9,57.6,50.6,45.8,61,53,34,29.79,29.68,7,3,7,0.03
2013-7-4,78.8,67.1,60.1,56.2,52.8,49.6,76,61,45,29.76,29.67,5,2,5,0.00
2013-7-5,77.6,70.3,59.4,57.2,54.9,51.7,79,59,48,29.68,29.59,9,2,9,0.02
2013-7-6,86.6,65.1,57.4,58.6,54.4,51.8,84,70,33,29.62,29.51,4,1,4,0.02
2013-7-7,85.7,68.8,60.1,60.0,56.8,52.6,83,66,42,29.59,29.53,4,1,4,0.02
2013-7-8,87.5,69.4,57.2,60.8,55.9,51.7,83,65,39,29.73,29.59,6,2,6,0.01
2013-7-9,91.8,71.1,61.6,60.0,56.8,51.8,80,63,32,29.75,29.64,6,2,6,0.01
2013-7-10,79.7,65.6,59.9,59.1,53.9,51.2,80,67,46,29.71,29.59,5,1,5,0.01
2013-7-11,79.4,65.3,56.5,53.0,49.3,47.3,72,57,38,29.72,29.63,3,2,3,0.03
2013-7-12,60.1,57.7,56.3,48.0,47.6,47.3,72,69,64,29.65,29.65,2,1,2,0.00
2013-7-13,85.3,73.9,63.7,54.7,51.2,48.1,69,46,30,29.83,29.75,5,2,5,0.09
2013-7-14,90.9,71.1,55.6,55.5,50.1,44.8,77,51,26,29.77,29.63,5,2,5,0.04
2013-7-15,87.5,71.8,59.8,57.6,51.5,47.5,71,51,29,29.68,29.54,8,3,8,0.03
2013-7-16,89.6,75.9,63.7,57.2,53.3,47.2,66,47,32,29.54,29.44,7,2,7,0.01
2013-7-17,75.6,67.3,61.0,58.2,56.2,53.3,83,68,53,29.82,29.53,6,2,6,0.15
2013-7-18,87.8,68.1,59.4,60.7,56.2,52.6,79,67,40,29.86,29.76,3,1,3,0.02
2013-7-19,81.7,70.6,59.6,61.8,58.0,54.5,83,66,48,29.80,29.68,5,1,5,0.02
2013-7-20,87.5,69.6,58.7,63.5,57.2,53.4,87,67,44,29.73,29.59,4,1,4,0.01
2013-7-21,68.6,60.8,57.6,58.4,54.5,52.9,87,80,70,29.62,29.60,3,1,3,0.02
2013-9-3,76.1,68.3,63.5,61.3,58.6,57.6,81,72,60,29.65,29.63,0,0,0,0.37
2013-9-4,79.4,68.1,60.8,64.4,60.7,57.2,90,78,60,29.68,29.64,4,1,4,0.01
2013-9-5,81.4,66.4,60.5,68.4,60.5,57.6,93,82,55,29.68,29.56,4,1,4,0.28
2013-9-6,79.2,66.0,61.2,65.2,61.4,59.5,95,86,60,29.74,29.58,3,1,3,1.12
2013-9-7,91.8,70.3,62.6,67.0,61.3,56.9,90,76,43,29.74,29.65,3,1,3,0.00
2013-9-8,98.1,74.8,60.1,70.8,60.9,56.4,90,67,34,29.74,29.66,3,1,3,0.00
2013-9-9,95.6,72.6,60.7,68.6,60.1,56.2,89,68,35,29.70,29.62,3,1,3,0.00
2013-9-10,64.8,64.8,64.8,58.2,58.2,58.2,79,79,79,29.62,29.62,1,1,1,0.00
2013-9-14,65.0,65.0,65.0,60.0,60.0,60.0,84,84,84,29.48,29.48,0,0,0,0.00
2013-9-15,67.0,64.6,63.0,61.9,61.1,60.2,92,88,84,29.44,29.38,3,2,3,0.14
2013-9-16,71.3,63.7,60.5,61.4,57.8,54.6,91,82,66,29.56,29.48,6,2,6,0.00
2013-9-17,64.6,61.0,59.0,54.9,53.0,51.5,80,75,65,29.55,29.50,3,1,3,0.00
2013-9-18,76.9,65.1,56.7,56.5,52.9,49.2,86,66,47,29.71,29.56,3,1,3,0.00
2013-9-19,90.4,68.6,50.4,57.2,52.1,46.0,87,59,30,29.68,29.40,3,1,3,0.01
2013-9-20,83.2,65.6,56.5,56.9,54.0,50.3,86,68,38,29.40,29.24,4,2,4,0.08
2013-9-21,79.7,63.6,56.3,57.3,54.1,51.6,89,74,44,29.36,29.28,4,1,4,0.05
2013-9-22,58.7,58.0,57.4,53.6,53.4,53.3,86,84,83,29.29,29.26,4,2,4,0.02
2013-9-25,66.4,57.8,51.3,51.1,48.2,45.6,88,71,54,29.65,29.59,2,1,2,0.00
2013-9-26,50.8,47.5,46.1,47.6,45.0,43.9,92,91,89,29.70,29.65,1,0,1,0.01
2013-9-29,53.8,53.8,53.8,49.1,48.9,48.2,84,83,81,29.15,29.07,4,4,4,0.74
2013-9-30,53.8,52.8,52.2,48.2,47.6,47.2,83,82,81,29.08,29.07,4,3,4,0.00
2013-10-1,58.7,58.7,58.7,46.9,46.9,46.9,65,65,65,29.67,29.67,5,5,5,0.00
2013-10-2,52.2,51.4,50.6,47.8,47.7,47.5,90,87,84,29.80,29.73,2,1,2,0.00
2013-10-3,50.6,49.9,49.5,47.7,47.6,47.5,93,92,90,29.87,29.80,0,0,0,0.00
2013-10-10,52.6,48.9,47.3,46.3,44.4,43.0,86,84,79,29.59,29.55,2,1,2,2.59
2013-10-11,58.7,57.8,56.5,52.4,51.9,51.1,86,81,77,29.75,29.72,1,0,1,0.41
2013-10-12,56.5,51.8,50.2,51.0,48.8,47.6,92,89,82,29.73,29.68,2,0,2,0.05
2013-10-13,48.4,47.6,45.5,44.6,43.6,42.2,88,86,83,29.97,29.95,0,0,0,0.00
2013-10-14,59.4,47.9,43.4,48.5,43.7,40.1,93,86,62,30.05,29.97,2,0,2,0.00
2013-10-15,72.5,51.7,44.6,57.7,46.8,41.3,95,84,55,30.00,29.79,4,0,4,0.00
2013-10-16,56.0,51.0,46.3,50.2,47.3,43.6,93,87,80,29.82,29.76,6,1,6,0.00
2013-10-17,68.4,51.1,46.4,54.9,47.2,43.1,90,87,62,29.89,29.81,5,1,5,0.00
2013-10-18,68.0,51.7,45.5,55.7,47.2,43.0,95,85,63,29.86,29.76,4,0,4,0.00
2013-10-19,51.8,49.1,46.8,48.8,46.7,44.6,94,91,88,29.81,29.75,3,0,3,0.00
2013-10-20,51.5,49.1,47.3,48.3,46.7,45.5,94,91,88,29.82,29.76,4,1,5,0.00
2013-10-21,53.1,50.0,47.2,49.8,47.6,45.5,94,92,88,29.78,29.71,4,1,4,0.00
2013-10-22,64.4,51.2,47.9,55.6,48.5,45.1,96,91,73,29.73,29.65,4,1,4,0.00
2013-10-23,62.8,47.8,46.1,56.2,46.3,44.7,96,94,79,29.67,29.61,4,0,4,0.00
2013-10-24,49.7,48.3,46.6,47.7,46.5,44.7,95,94,92,29.74,29.64,2,0,2,0.00
2013-10-25,53.8,50.1,46.4,50.8,47.9,44.3,95,92,88,29.93,29.74,3,0,3,0.00
2013-10-26,54.4,50.5,47.9,49.2,47.4,46.3,95,89,79,29.95,29.82,4,1,4,0.00
2013-10-27,59.8,52.1,47.5,50.4,46.8,44.9,94,83,68,29.80,29.52,11,2,11,0.00
2013-10-28,61.6,51.1,42.8,48.0,41.8,34.7,94,73,40,29.56,29.51,14,2,14,0.00
2013-10-29,65.2,51.1,38.3,43.9,39.4,33.9,87,66,42,29.66,29.56,6,1,6,0.00
2013-10-30,58.0,50.4,40.1,46.9,42.6,35.6,87,75,64,29.74,29.64,5,2,5,0.00
2013-10-31,56.5,52.7,50.4,51.7,49.1,46.6,90,87,82,29.87,29.73,4,1,4,0.00
2013-11-1,64.3,56.0,52.6,52.5,50.4,47.6,92,82,65,29.89,29.47,4,0,4,0.00
2013-11-2,54.9,50.9,47.5,50.8,42.9,39.4,91,74,66,29.50,29.11,18,5,18,0.00
2013-11-3,45.9,44.1,42.8,41.7,40.3,39.4,89,87,82,29.66,29.51,4,1,4,0.00
2013-11-4,54.4,54.1,53.6,45.9,43.7,41.1,75,68,61,29.81,29.78,1,1,1,0.00
2013-11-5,51.1,46.6,45.5,46.7,43.8,43.1,91,90,85,29.77,29.63,2,1,2,0.00
2013-11-6,52.9,50.4,46.1,47.6,46.4,43.7,91,86,79,29.93,29.70,2,1,2,0.00
2013-11-7,51.7,49.6,48.6,48.2,46.8,45.8,94,90,82,29.57,29.32,12,4,12,0.00
2013-11-8,54.5,50.6,47.2,46.8,44.9,42.9,86,81,73,29.77,29.58,6,2,6,0.00
2013-11-9,52.2,48.7,40.7,46.1,44.6,38.3,92,86,77,29.73,29.68,4,1,4,0.00
2013-11-10,51.3,47.6,45.9,46.6,45.1,44.0,94,91,84,29.76,29.69,6,2,6,0.00
2013-11-11,62.3,49.4,41.9,53.0,45.0,40.1,94,85,67,29.77,29.61,4,0,4,0.00
2013-11-12,65.9,53.3,46.6,58.1,49.5,43.9,92,87,71,29.98,29.63,6,2,6,0.00
2013-11-13,58.7,53.6,50.0,52.6,49.1,45.4,92,85,73,30.04,29.92,7,2,7,0.00
2013-11-14,52.7,47.8,44.3,48.3,44.9,42.3,93,90,82,29.92,29.67,2,0,2,0.00
2013-11-15,49.3,45.9,44.6,46.8,43.3,41.3,93,90,86,29.67,28.93,8,2,8,0.00
2013-11-16,50.4,45.7,40.5,43.2,39.6,37.8,90,80,69,29.37,28.96,6,2,6,0.00
2013-11-17,55.8,48.2,44.6,49.3,44.2,39.2,91,86,79,29.51,29.38,6,3,6,0.00
2013-11-18,52.2,50.2,47.5,50.1,48.4,45.4,95,94,91,29.51,29.16,8,2,8,0.00
2013-11-19,53.6,48.0,44.6,51.7,45.7,41.3,94,91,86,29.46,29.16,8,3,8,0.00
2013-11-20,49.0,40.6,35.6,32.9,28.8,25.8,80,63,45,30.10,29.88,8,3,8,0.00
2013-11-21,50.0,37.2,31.3,33.6,28.9,26.0,87,73,48,30.28,30.11,7,2,7,0.00
2013-11-22,50.9,38.8,32.4,35.5,30.2,27.3,85,72,45,30.26,30.07,4,2,4,0.00
2013-11-23,54.5,39.9,31.3,40.5,32.9,27.6,87,77,58,30.05,29.80,3,0,3,0.00
2013-11-24,59.6,40.6,32.6,46.5,35.5,29.7,90,83,61,29.86,29.77,4,0,4,0.00
2013-11-25,60.5,42.3,34.9,47.4,37.2,32.5,93,83,61,29.94,29.86,2,0,2,0.00
2013-11-26,61.6,44.0,35.5,47.6,38.7,33.0,94,82,60,29.87,29.71,2,0,2,0.00
2013-11-27,60.8,46.2,39.8,47.0,40.4,36.0,88,81,60,29.71,29.57,2,0,2,0.00
2013-11-28,54.7,41.3,37.1,49.0,38.6,34.4,94,90,78,29.79,29.63,3,0,3,0.00
2013-11-29,47.7,43.2,40.0,45.9,41.1,38.1,94,92,87,29.92,29.78,3,1,3,0.00
2013-11-30,51.3,49.3,45.2,47.9,45.6,43.0,93,87,83,29.94,29.70,7,2,7,0.00
2013-12-1,54.2,51.7,45.7,51.3,48.0,39.0,95,87,73,29.70,29.35,11,4,11,0.00
2013-12-2,51.5,41.3,37.1,39.0,34.6,32.9,89,78,57,29.65,29.42,4,1,4,0.00
2013-12-3,45.2,37.2,30.8,35.1,26.8,24.5,90,67,49,29.91,29.66,8,2,10,0.00
2013-12-4,46.3,30.9,26.3,33.9,25.4,22.6,88,80,54,29.97,29.89,5,0,5,0.00
2013-12-5,35.6,29.4,25.0,25.0,21.5,18.0,81,73,62,29.93,29.79,5,0,5,0.00
2013-12-6,39.2,30.1,26.3,19.9,14.8,10.7,69,53,37,29.80,29.75,10,2,10,0.00
2013-12-7,37.1,27.0,22.5,13.1,10.1,7.0,63,50,35,30.03,29.83,5,1,5,0.00
2013-12-8,39.4,27.3,21.2,22.2,15.9,11.1,72,62,45,30.18,30.02,4,1,4,0.00
2013-12-9,34.2,29.0,23.8,25.0,20.5,15.4,79,71,64,30.19,30.09,4,1,4,0.00
2013-12-10,40.7,36.4,32.9,34.5,30.6,25.0,85,79,72,30.10,30.02,2,0,2,0.00
2013-12-11,43.0,37.0,31.0,37.9,32.8,27.5,92,85,79,30.02,29.78,2,0,2,0.00
2013-12-12,41.9,38.0,33.5,40.3,35.7,31.3,95,92,79,29.77,29.66,2,1,2,0.00
2013-12-13,48.6,45.5,42.1,47.1,44.0,40.5,96,94,92,30.03,29.74,3,1,3,0.00
2013-12-14,49.0,46.1,43.7,44.7,43.6,42.0,94,91,85,30.04,29.94,5,2,5,0.00
2013-12-15,51.5,49.7,47.0,48.3,47.1,44.1,95,91,86,30.06,29.92,7,2,7,0.00
2013-12-16,52.7,45.6,41.4,47.4,43.1,39.0,94,91,82,30.10,29.88,3,0,3,0.00
2013-12-17,45.9,42.4,39.8,43.3,40.3,38.2,96,92,87,29.88,29.72,5,1,5,0.00
2013-12-18,45.0,42.6,38.2,42.7,39.3,33.0,94,88,72,29.76,29.64,6,1,6,0.00
2013-12-19,42.8,36.5,30.4,34.7,30.6,26.9,90,79,67,29.96,29.76,4,1,4,0.00
2013-12-20,44.5,37.0,32.6,43.1,34.2,27.8,95,90,78,29.81,29.32,4,1,4,0.00
2013-12-21,46.1,43.7,40.9,44.7,42.3,39.5,95,95,94,29.77,29.44,4,1,4,0.00
2013-12-22,49.9,47.8,45.7,48.7,46.7,44.4,97,96,95,29.90,29.76,5,2,5,0.00
2013-12-23,58.9,49.7,44.3,50.1,45.7,40.3,95,87,68,30.12,29.74,9,3,9,0.00
2013-12-24,49.3,41.9,36.5,43.4,38.5,34.1,93,88,80,30.23,30.12,2,0,2,0.00
2013-12-25,46.6,38.3,35.1,41.3,35.6,32.3,94,90,79,30.15,30.01,1,0,1,0.00
2013-12-26,49.1,38.6,35.3,44.5,36.4,33.4,95,92,84,30.01,29.81,2,0,2,0.00
2013-12-27,45.5,40.1,34.0,43.7,38.5,32.6,96,94,91,29.97,29.74,6,1,6,0.00
2013-12-28,49.1,42.9,38.7,46.6,41.1,37.1,95,93,88,30.13,29.98,1,0,1,0.00
2013-12-29,45.4,40.6,36.4,42.9,38.8,35.0,96,93,89,30.09,29.92,2,0,2,0.00
2013-12-30,45.0,42.2,39.8,42.9,40.6,38.1,96,94,91,29.93,29.73,2,0,2,0.00
2013-12-31,46.4,44.7,40.7,44.8,42.6,39.1,95,92,87,29.98,29.80,3,1,3,0.00
2014-1-1,47.2,43.1,40.1,46.1,41.5,39.1,97,94,91,30.01,29.86,4,0,4,0.00
2014-1-2,49.9,46.2,42.8,45.2,43.4,41.5,95,90,81,29.86,29.50,6,2,6,0.00